Time;durP1;ratioP1;P1;durP2;ratioP2;P2;SDS_P1;SDS_P2;PMS_P1;PMS_P2;Temp;Humidity;BMP_temperature;BMP_pressure;BME280_temperature;BME280_humidity;BME280_pressure;Samples;Min_cycle;Max_cycle;Signal;HPM_P1;HPM_P2
2022/07/11 00:02:06;;;;;;;4.65;1.10;;;;;;;16.19;47.23;98819.50;4459067;32;20120;-80
2022/07/11 00:04:32;;;;;;;1.87;0.80;;;;;;;16.42;46.78;98828.34;4486542;32;20084;-79
2022/07/11 00:06:58;;;;;;;2.10;0.90;;;;;;;16.44;46.73;98826.41;4486441;32;20119;-80
2022/07/11 00:09:24;;;;;;;2.80;0.93;;;;;;;16.43;46.74;98833.53;4472096;32;20112;-80
2022/07/11 00:11:50;;;;;;;4.43;1.08;;;;;;;16.23;47.37;98835.09;4486551;32;20123;-80
2022/07/11 00:14:17;;;;;;;4.90;1.12;;;;;;;16.16;47.53;98838.34;4471855;32;20100;-78
2022/07/11 00:16:42;;;;;;;4.78;0.93;;;;;;;16.11;47.75;98844.84;4486146;32;20431;-80
2022/07/11 00:19:08;;;;;;;4.25;0.90;;;;;;;16.18;47.64;98849.69;4458921;32;20168;-80
2022/07/11 00:21:35;;;;;;;7.03;1.27;;;;;;;16.29;47.38;98845.25;4485959;32;20433;-79
2022/07/11 00:24:00;;;;;;;3.87;0.90;;;;;;;16.30;47.34;98846.94;4486121;32;20107;-80
2022/07/11 00:26:26;;;;;;;3.47;0.70;;;;;;;16.19;47.71;98841.59;4485845;32;20080;-80
2022/07/11 00:28:51;;;;;;;3.85;1.00;;;;;;;16.18;47.81;98831.09;4485882;32;20108;-80
2022/07/11 00:31:16;;;;;;;3.15;0.75;;;;;;;16.24;47.64;98835.91;4485870;32;20092;-80
2022/07/11 00:33:42;;;;;;;2.55;0.80;;;;;;;16.49;47.04;98829.53;4487905;32;20141;-80
2022/07/11 00:36:08;;;;;;;2.17;0.80;;;;;;;16.52;47.01;98826.66;4473746;32;20102;-80
2022/07/11 00:38:33;;;;;;;5.22;1.30;;;;;;;16.15;47.95;98824.22;4487923;32;20537;-79
2022/07/11 00:40:59;;;;;;;2.25;0.80;;;;;;;16.20;47.83;98829.16;4487953;32;20084;-78
2022/07/11 00:43:36;;;;;;;3.90;1.12;;;;;;;16.25;47.89;98829.66;4487903;32;20155;-80
2022/07/11 00:46:06;;;;;;;4.13;1.10;;;;;;;16.31;47.88;98834.50;4473903;32;20122;-80
2022/07/11 00:48:32;;;;;;;3.25;0.95;;;;;;;16.23;48.27;98836.91;4487996;32;20168;-79
2022/07/11 00:50:58;;;;;;;6.53;0.90;;;;;;;16.10;48.67;98840.50;4473595;32;20421;-80
2022/07/11 00:53:24;;;;;;;2.75;0.85;;;;;;;16.15;48.80;98834.84;4487986;32;20143;-81
2022/07/11 00:55:52;;;;;;;3.20;0.90;;;;;;;16.31;48.33;98827.34;4473656;32;20077;-81
2022/07/11 00:58:18;;;;;;;5.68;1.17;;;;;;;16.08;49.02;98833.59;4487935;32;20118;-79
2022/07/11 01:00:44;;;;;;;4.03;1.20;;;;;;;16.04;49.21;98834.81;4487922;32;20159;-80
2022/07/11 01:03:09;;;;;;;4.68;0.95;;;;;;;16.14;49.09;98829.63;4487785;32;20085;-80
2022/07/11 01:05:35;;;;;;;4.68;1.10;;;;;;;16.26;48.82;98826.87;4473498;32;20436;-80
2022/07/11 01:08:01;;;;;;;3.30;1.00;;;;;;;16.39;48.53;98833.91;4487833;32;20167;-79
2022/07/11 01:10:27;;;;;;;3.67;1.17;;;;;;;16.10;49.25;98829.84;4487824;32;20124;-80
2022/07/11 01:12:52;;;;;;;5.47;1.10;;;;;;;16.46;48.35;98833.31;4488076;32;20139;-80
2022/07/11 01:15:18;;;;;;;3.75;1.08;;;;;;;16.34;48.73;98831.59;4487620;32;20089;-81
2022/07/11 01:17:43;;;;;;;3.90;0.98;;;;;;;16.05;49.52;98837.34;4473360;32;20147;-81
2022/07/11 01:20:12;;;;;;;4.47;1.12;;;;;;;16.00;49.70;98838.66;4487968;32;20096;-81
2022/07/11 01:22:45;;;;;;;3.75;1.00;;;;;;;16.12;49.44;98827.09;4487829;32;20155;-81
2022/07/11 01:25:10;;;;;;;3.35;1.02;;;;;;;16.30;49.12;98827.47;4473466;32;20432;-81
2022/07/11 01:27:36;;;;;;;4.18;1.10;;;;;;;15.98;49.92;98833.47;4487618;32;20122;-80
2022/07/11 01:30:02;;;;;;;4.45;1.23;;;;;;;16.14;49.50;98834.94;4487604;32;20115;-80
2022/07/11 01:32:27;;;;;;;3.58;1.20;;;;;;;16.14;49.56;98837.59;4487630;32;20119;-80
2022/07/11 01:34:53;;;;;;;2.85;1.00;;;;;;;15.95;50.12;98857.59;4473349;32;20429;-80
2022/07/11 01:37:18;;;;;;;5.87;1.58;;;;;;;15.98;50.18;98840.59;4487556;32;20383;-80
2022/07/11 01:39:44;;;;;;;3.72;1.00;;;;;;;16.11;49.72;98841.34;4473226;32;20468;-81
2022/07/11 01:42:09;;;;;;;5.60;1.30;;;;;;;16.11;49.72;98842.19;4487505;32;20096;-80
2022/07/11 01:44:34;;;;;;;5.53;1.23;;;;;;;15.94;50.17;98833.81;4486489;32;20085;-80
2022/07/11 01:47:00;;;;;;;4.28;1.50;;;;;;;16.05;49.96;98836.47;4487440;32;20100;-80
2022/07/11 01:49:29;;;;;;;5.00;1.20;;;;;;;16.10;49.89;98834.34;4487559;32;20096;-80
2022/07/11 01:51:55;;;;;;;2.80;1.10;;;;;;;15.67;51.14;98834.91;4487764;32;20100;-80
2022/07/11 01:54:21;;;;;;;3.70;0.95;;;;;;;15.79;50.84;98826.03;4487769;32;20093;-80
2022/07/11 01:56:46;;;;;;;4.82;1.15;;;;;;;15.65;51.32;98831.53;4487782;32;20466;-79
2022/07/11 01:59:12;;;;;;;5.50;1.17;;;;;;;15.50;51.76;98833.50;4473290;32;20114;-80
2022/07/11 02:01:37;;;;;;;2.92;1.02;;;;;;;15.67;51.34;98835.75;4487674;32;20084;-79
2022/07/11 02:04:03;;;;;;;4.25;1.10;;;;;;;15.37;52.30;98830.88;4487721;32;20131;-79
2022/07/11 02:06:29;;;;;;;3.55;1.08;;;;;;;15.55;51.89;98823.41;4487400;32;20173;-79
2022/07/11 02:08:54;;;;;;;3.25;1.20;;;;;;;15.52;52.11;98828.91;4487310;32;20364;-79
2022/07/11 02:11:19;;;;;;;4.22;1.00;;;;;;;15.68;51.65;98826.84;4487288;32;20110;-79
2022/07/11 02:13:45;;;;;;;4.97;1.27;;;;;;;15.48;52.23;98838.91;4487396;32;20097;-79
2022/07/11 02:16:10;;;;;;;6.80;1.00;;;;;;;15.39;52.54;98836.09;4487388;32;20096;-80
2022/07/11 02:18:36;;;;;;;5.10;1.20;;;;;;;15.62;51.95;98818.47;4487279;32;20204;-79
2022/07/11 02:21:02;;;;;;;5.32;1.17;;;;;;;15.40;52.65;98822.72;4487363;32;20080;-79
2022/07/11 02:23:28;;;;;;;5.78;1.30;;;;;;;15.58;52.06;98815.19;4487280;32;20121;-79
2022/07/11 02:25:53;;;;;;;4.45;1.37;;;;;;;15.46;52.39;98824.91;4487269;32;20139;-80
2022/07/11 02:28:19;;;;;;;5.90;1.30;;;;;;;15.52;52.24;98819.13;4487328;32;20161;-79
2022/07/11 02:30:45;;;;;;;5.45;1.20;;;;;;;15.45;52.53;98825.88;4472872;32;20158;-79
2022/07/11 02:33:13;;;;;;;7.43;1.30;;;;;;;15.38;52.75;98826.44;4487248;32;20148;-79
2022/07/11 02:35:39;;;;;;;6.35;1.05;;;;;;;15.48;52.41;98820.34;4487201;32;20100;-79
2022/07/11 02:38:04;;;;;;;4.55;1.52;;;;;;;15.51;52.26;98827.22;4487251;32;20141;-79
2022/07/11 02:40:30;;;;;;;4.43;1.10;;;;;;;15.12;53.44;98827.41;4487107;32;20149;-79
2022/07/11 02:42:56;;;;;;;4.57;1.00;;;;;;;15.27;53.11;98827.22;4487153;32;20096;-80
2022/07/11 02:45:22;;;;;;;5.25;1.35;;;;;;;15.33;52.89;98826.78;4487111;32;20088;-76
2022/07/11 02:47:47;;;;;;;6.62;1.30;;;;;;;15.27;52.98;98830.72;4472815;32;20112;-79
2022/07/11 02:50:13;;;;;;;4.82;1.20;;;;;;;15.21;53.27;98833.00;4487028;32;20503;-80
2022/07/11 02:52:40;;;;;;;3.37;1.00;;;;;;;15.19;53.43;98838.41;4472897;32;20459;-79
2022/07/11 02:55:10;;;;;;;5.37;1.47;;;;;;;15.23;53.37;98839.03;4486654;32;20163;-79
2022/07/11 02:57:36;;;;;;;4.18;1.30;;;;;;;15.21;53.39;98836.47;4487147;32;20092;-79
2022/07/11 03:00:07;;;;;;;5.62;1.27;;;;;;;15.47;52.73;98833.72;4487066;32;20145;-79
2022/07/11 03:02:32;;;;;;;5.05;1.37;;;;;;;15.09;53.66;98835.56;4487042;32;20087;-80
2022/07/11 03:04:58;;;;;;;4.37;1.30;;;;;;;15.32;53.15;98835.72;4487115;32;20118;-80
2022/07/11 03:07:26;;;;;;;5.50;1.30;;;;;;;15.36;52.96;98829.22;4486948;32;20181;-80
2022/07/11 03:09:52;;;;;;;7.90;1.58;;;;;;;15.51;52.59;98836.03;4486618;32;20112;-80
2022/07/11 03:12:18;;;;;;;5.07;1.35;;;;;;;15.17;53.51;98840.31;4486863;32;20144;-79
2022/07/11 03:14:43;;;;;;;6.10;1.17;;;;;;;15.26;53.35;98836.13;4486921;32;20110;-79
2022/07/11 03:17:08;;;;;;;4.90;1.35;;;;;;;15.47;52.86;98831.06;4487115;32;20088;-79
2022/07/11 03:19:34;;;;;;;6.10;1.27;;;;;;;15.28;53.25;98827.13;4487082;32;20479;-78
2022/07/11 03:21:59;;;;;;;5.45;1.50;;;;;;;15.34;53.20;98836.44;4472852;32;20106;-79
2022/07/11 03:24:25;;;;;;;6.85;1.55;;;;;;;15.57;52.58;98828.56;4487129;32;20126;-80
2022/07/11 03:26:50;;;;;;;4.68;1.20;;;;;;;15.79;51.93;98828.69;4487067;32;20106;-79
2022/07/11 03:29:17;;;;;;;3.83;1.10;;;;;;;15.96;51.47;98821.28;4486831;31;20089;-80
2022/07/11 03:31:43;;;;;;;6.25;1.45;;;;;;;15.80;51.93;98829.53;4489251;31;20092;-80
2022/07/11 03:34:09;;;;;;;6.32;1.10;;;;;;;15.87;51.81;98826.28;4487050;32;20115;-80
2022/07/11 03:36:34;;;;;;;5.57;1.20;;;;;;;15.90;51.71;98830.56;4486941;32;20091;-80
2022/07/11 03:39:00;;;;;;;11.32;1.50;;;;;;;15.89;51.69;98826.19;4459485;32;20137;-86
2022/07/11 03:41:25;;;;;;;3.60;1.30;;;;;;;16.11;51.08;98834.22;4486685;32;20475;-85
2022/07/11 03:43:51;;;;;;;4.97;1.20;;;;;;;16.14;51.09;98837.59;4472226;32;20096;-84
2022/07/11 03:46:16;;;;;;;4.55;1.40;;;;;;;16.11;51.12;98841.34;4486498;32;20072;-85
2022/07/11 03:48:42;;;;;;;4.28;1.27;;;;;;;15.98;51.54;98840.59;4472201;32;20092;-85
2022/07/11 03:51:07;;;;;;;2.60;1.02;;;;;;;16.19;50.93;98838.12;4486360;32;20085;-85
2022/07/11 03:53:33;;;;;;;3.78;1.27;;;;;;;16.14;50.86;98846.41;4486514;32;20092;-86
2022/07/11 03:55:59;;;;;;;5.97;1.42;;;;;;;16.26;50.81;98848.16;4486484;32;20089;-85
2022/07/11 03:58:24;;;;;;;6.05;1.60;;;;;;;16.56;49.94;98851.19;4486263;32;20467;-84
2022/07/11 04:00:50;;;;;;;4.55;1.30;;;;;;;16.62;49.52;98843.56;4486376;32;20072;-84
2022/07/11 04:03:15;;;;;;;6.18;2.00;;;;;;;16.46;49.87;98846.59;4486220;32;20088;-84
2022/07/11 04:05:41;;;;;;;4.55;1.30;;;;;;;16.62;49.64;98846.22;4486283;32;20088;-84
2022/07/11 04:08:06;;;;;;;6.97;1.60;;;;;;;16.83;49.09;98849.06;4487638;32;20104;-85
2022/07/11 04:10:32;;;;;;;8.02;1.40;;;;;;;16.50;49.60;98850.72;4473630;32;20356;-85
2022/07/11 04:12:57;;;;;;;6.68;1.60;;;;;;;16.79;49.21;98860.03;4473969;32;20149;-85
2022/07/11 04:15:22;;;;;;;3.78;1.20;;;;;;;17.15;48.24;98853.59;4473990;32;20084;-85
2022/07/11 04:17:48;;;;;;;6.78;1.20;;;;;;;17.29;48.16;98863.16;4488186;32;20137;-84
2022/07/11 04:20:14;;;;;;;7.78;1.30;;;;;;;17.21;48.04;98863.78;4488141;32;20167;-84
2022/07/11 04:22:39;;;;;;;4.37;1.40;;;;;;;17.51;47.28;98864.06;4473651;32;20108;-84
2022/07/11 04:25:05;;;;;;;5.03;1.20;;;;;;;17.55;47.35;98860.16;4488149;32;20110;-85
2022/07/11 04:27:30;;;;;;;4.43;1.27;;;;;;;17.86;46.73;98861.16;4488157;32;20081;-84
2022/07/11 04:29:56;;;;;;;6.20;1.40;;;;;;;17.88;46.30;98859.22;4487921;32;20414;-85
2022/07/11 04:32:21;;;;;;;5.37;1.30;;;;;;;17.83;46.33;98864.06;4488145;32;20118;-85
2022/07/11 04:34:47;;;;;;;5.40;1.25;;;;;;;17.95;46.24;98859.56;4487983;32;20149;-85
2022/07/11 04:37:12;;;;;;;5.30;1.30;;;;;;;17.97;46.07;98858.44;4488080;32;20107;-84
2022/07/11 04:39:38;;;;;;;5.53;1.30;;;;;;;17.80;46.48;98865.16;4488128;32;20088;-85
2022/07/11 04:42:06;;;;;;;4.32;1.27;;;;;;;18.00;46.09;98868.00;4487823;32;20088;-85
2022/07/11 04:44:32;;;;;;;5.72;1.20;;;;;;;17.94;46.18;98868.50;4474061;32;20175;-85
2022/07/11 04:46:57;;;;;;;5.53;1.30;;;;;;;18.18;45.62;98865.63;4487995;32;20126;-85
2022/07/11 04:49:23;;;;;;;4.78;1.25;;;;;;;18.40;45.23;98872.63;4487848;32;20428;-85
2022/07/11 04:51:48;;;;;;;4.30;1.35;;;;;;;18.75;44.33;98866.06;4487983;32;20085;-85
2022/07/11 04:54:14;;;;;;;5.97;1.20;;;;;;;18.67;44.15;98867.56;4473540;32;20158;-85
2022/07/11 04:56:39;;;;;;;5.35;1.40;;;;;;;18.92;43.90;98872.63;4473719;32;20131;-85
2022/07/11 04:59:04;;;;;;;5.78;1.30;;;;;;;18.83;43.79;98868.94;4473579;32;20103;-85
2022/07/11 05:01:30;;;;;;;5.53;1.45;;;;;;;19.08;43.58;98867.63;4487789;32;20081;-85
2022/07/11 05:03:56;;;;;;;4.47;1.30;;;;;;;19.22;43.25;98863.75;4487910;32;20110;-85
2022/07/11 05:06:21;;;;;;;4.45;1.30;;;;;;;19.33;42.81;98868.94;4487847;32;20459;-85
2022/07/11 05:08:47;;;;;;;2.70;1.10;;;;;;;19.13;43.41;98869.91;4487731;32;20148;-84
2022/07/11 05:11:13;;;;;;;5.15;1.40;;;;;;;19.32;43.18;98864.59;4470792;32;20088;-84
2022/07/11 05:13:39;;;;;;;3.50;1.30;;;;;;;19.71;42.14;98867.31;4472024;32;20620;-85
2022/07/11 05:16:04;;;;;;;5.35;1.25;;;;;;;19.92;42.14;98869.88;4472110;32;20093;-84
2022/07/11 05:18:30;;;;;;;7.05;2.10;;;;;;;20.04;41.88;98875.94;4471823;32;20111;-86
2022/07/11 05:20:57;;;;;;;6.28;1.10;;;;;;;20.22;41.56;98873.34;4470939;32;20189;-83
2022/07/11 05:23:22;;;;;;;4.93;1.20;;;;;;;20.32;40.93;98881.37;4472064;32;20088;-88
2022/07/11 05:25:48;;;;;;;6.80;1.40;;;;;;;20.38;41.16;98880.81;4472011;32;20139;-86
2022/07/11 05:28:13;;;;;;;4.50;1.30;;;;;;;20.65;40.42;98879.22;4470771;32;20093;-85
2022/07/11 05:30:38;;;;;;;8.90;1.35;;;;;;;20.74;39.92;98878.34;4471906;32;20096;-81
2022/07/11 05:33:04;;;;;;;6.15;1.30;;;;;;;20.65;39.60;98884.56;4472036;32;20155;-81
2022/07/11 05:35:29;;;;;;;8.73;1.20;;;;;;;20.72;39.33;98891.03;4471825;32;20341;-79
2022/07/11 05:37:55;;;;;;;5.60;1.20;;;;;;;20.39;39.71;98887.84;4471967;32;20431;-80
2022/07/11 05:40:20;;;;;;;6.07;1.08;;;;;;;20.22;39.81;98887.59;4470625;32;20436;-81
2022/07/11 05:42:46;;;;;;;6.75;1.40;;;;;;;20.35;40.03;98887.28;4471973;32;20119;-79
2022/07/11 05:45:11;;;;;;;3.28;1.10;;;;;;;20.52;39.87;98891.06;4471671;32;20111;-80
2022/07/11 05:47:37;;;;;;;4.55;1.27;;;;;;;20.81;39.10;98890.16;4471658;32;20081;-80
2022/07/11 05:50:03;;;;;;;5.75;1.12;;;;;;;20.97;38.61;98889.53;4471842;32;20089;-82
2022/07/11 05:52:29;;;;;;;5.90;1.30;;;;;;;21.25;38.43;98890.38;4471823;32;20092;-81
2022/07/11 05:54:54;;;;;;;4.37;1.15;;;;;;;21.41;38.07;98890.56;4471840;32;20088;-81
2022/07/11 05:57:20;;;;;;;6.00;1.05;;;;;;;21.54;37.97;98886.72;4471911;32;20341;-82
2022/07/11 05:59:46;;;;;;;6.65;1.30;;;;;;;21.74;37.05;98890.94;4471753;32;20177;-80
2022/07/11 06:02:12;;;;;;;6.40;1.23;;;;;;;21.57;36.96;98897.97;4471912;32;20092;-81
2022/07/11 06:04:37;;;;;;;7.87;1.30;;;;;;;21.84;37.20;98896.22;4470435;32;20141;-82
2022/07/11 06:07:04;;;;;;;5.80;1.10;;;;;;;21.76;36.69;98897.00;4471682;32;20220;-82
2022/07/11 06:09:29;;;;;;;7.75;1.30;;;;;;;22.06;36.42;98896.75;4471193;32;20097;-83
2022/07/11 06:11:55;;;;;;;5.47;1.30;;;;;;;22.16;35.76;98903.72;4487165;32;20111;-81
2022/07/11 06:14:21;;;;;;;4.40;1.10;;;;;;;22.25;35.25;98917.25;4473212;32;20089;-83
2022/07/11 06:16:46;;;;;;;3.80;1.10;;;;;;;22.29;35.37;98907.88;4487302;32;20080;-82
2022/07/11 06:19:12;;;;;;;6.55;1.17;;;;;;;22.40;35.36;98901.44;4473367;32;20101;-82
2022/07/11 06:21:37;;;;;;;4.65;1.20;;;;;;;22.43;35.25;98907.34;4486171;32;20088;-83
2022/07/11 06:24:03;;;;;;;5.65;1.15;;;;;;;22.39;35.20;98908.66;4472542;32;20117;-82
2022/07/11 06:26:29;;;;;;;4.68;1.15;;;;;;;22.60;34.71;98900.25;4486916;32;20092;-82
2022/07/11 06:28:55;;;;;;;4.62;1.05;;;;;;;22.55;34.81;98903.37;4472250;32;20112;-82
2022/07/11 06:31:20;;;;;;;5.62;1.10;;;;;;;22.86;34.63;98900.22;4472080;32;20150;-82
2022/07/11 06:33:47;;;;;;;5.72;1.15;;;;;;;23.03;34.17;98901.19;4472955;32;20092;-82
2022/07/11 06:36:13;;;;;;;7.90;1.45;;;;;;;22.94;34.33;98913.69;4487450;32;20084;-82
2022/07/11 06:38:38;;;;;;;5.57;1.05;;;;;;;22.97;34.40;98902.63;4487478;32;20390;-82
2022/07/11 06:41:03;;;;;;;5.60;1.15;;;;;;;22.58;34.90;98912.97;4473120;32;20140;-82
2022/07/11 06:43:30;;;;;;;5.15;1.12;;;;;;;22.63;34.71;98912.50;4487443;32;20127;-82
2022/07/11 06:45:55;;;;;;;5.68;1.42;;;;;;;22.73;34.77;98919.44;4487533;32;20148;-82
2022/07/11 06:48:21;;;;;;;8.27;1.30;;;;;;;22.57;34.89;98922.03;4487235;32;20149;-82
2022/07/11 06:50:47;;;;;;;4.93;1.30;;;;;;;22.77;34.27;98917.28;4473078;32;20143;-82
2022/07/11 06:53:12;;;;;;;7.18;1.35;;;;;;;22.79;34.49;98920.63;4487419;32;20110;-82
2022/07/11 06:55:38;;;;;;;6.37;1.10;;;;;;;22.30;35.09;98937.25;4487365;32;20084;-82
2022/07/11 06:58:05;;;;;;;7.37;1.33;;;;;;;22.42;35.26;98920.91;4473067;32;20334;-82
2022/07/11 07:00:31;;;;;;;6.07;1.25;;;;;;;22.68;34.52;98923.63;4472658;32;20108;-81
2022/07/11 07:02:57;;;;;;;4.82;1.10;;;;;;;22.67;34.44;98924.59;4487145;32;20084;-82
2022/07/11 07:05:24;;;;;;;5.68;1.30;;;;;;;22.25;35.13;98926.16;4487055;32;20416;-82
2022/07/11 07:07:50;;;;;;;5.22;1.20;;;;;;;22.37;34.54;98924.06;4486982;32;20118;-81
2022/07/11 07:10:16;;;;;;;5.18;1.00;;;;;;;22.63;34.42;98931.28;4472463;32;20126;-82
2022/07/11 07:12:41;;;;;;;5.28;1.12;;;;;;;22.61;34.26;98931.44;4486952;32;20084;-82
2022/07/11 07:15:07;;;;;;;5.65;1.20;;;;;;;22.47;34.30;98921.28;4472625;32;20138;-82
2022/07/11 07:17:32;;;;;;;5.28;1.35;;;;;;;22.15;35.45;98931.53;4486927;32;20081;-82
2022/07/11 07:19:58;;;;;;;8.23;1.50;;;;;;;22.40;35.00;98941.69;4486980;32;20348;-82
2022/07/11 07:22:23;;;;;;;4.95;1.12;;;;;;;21.77;35.82;98941.59;4486837;32;20081;-82
2022/07/11 07:24:48;;;;;;;8.90;1.40;;;;;;;21.70;36.31;98937.81;4486774;32;20420;-82
2022/07/11 07:27:14;;;;;;;4.50;1.20;;;;;;;22.09;35.99;98937.53;4486735;32;20555;-82
2022/07/11 07:29:40;;;;;;;6.65;1.25;;;;;;;22.07;36.17;98926.13;4472524;32;20088;-82
2022/07/11 07:32:05;;;;;;;6.12;1.10;;;;;;;22.56;35.59;98934.63;4486748;32;20417;-82
2022/07/11 07:34:32;;;;;;;7.03;1.23;;;;;;;22.80;34.81;98937.62;4486656;32;20115;-82
2022/07/11 07:36:58;;;;;;;8.82;1.52;;;;;;;22.59;34.93;98941.50;4486687;32;20508;-82
2022/07/11 07:39:23;;;;;;;5.75;1.27;;;;;;;22.17;35.80;98934.94;4472290;32;20099;-82
2022/07/11 07:41:48;;;;;;;9.23;1.40;;;;;;;22.25;35.80;98936.03;4485275;32;20094;-82
2022/07/11 07:44:14;;;;;;;4.80;1.20;;;;;;;22.30;35.95;98936.41;4486628;32;20141;-82
2022/07/11 07:46:39;;;;;;;5.07;1.30;;;;;;;22.32;35.84;98935.25;4486845;32;20084;-82
2022/07/11 07:49:05;;;;;;;6.10;1.20;;;;;;;22.60;35.43;98936.97;4486798;32;20096;-82
2022/07/11 07:51:30;;;;;;;5.05;1.05;;;;;;;22.78;34.73;98933.22;4486711;32;20102;-82
2022/07/11 07:53:56;;;;;;;5.20;1.35;;;;;;;22.78;35.12;98927.03;4486762;32;20096;-82
2022/07/11 07:56:21;;;;;;;6.97;1.50;;;;;;;22.59;34.83;98936.13;4472189;32;20169;-82
2022/07/11 07:58:47;;;;;;;4.87;1.10;;;;;;;22.30;35.48;98936.41;4472093;32;20146;-82
2022/07/11 08:03:56;;;;;;;5.07;1.10;;;;;;;22.90;34.61;98935.66;4486341;32;20466;-82
2022/07/11 08:06:22;;;;;;;4.45;1.25;;;;;;;23.04;34.42;98920.81;4472050;32;20100;-82
2022/07/11 08:08:49;;;;;;;6.10;1.30;;;;;;;22.94;34.29;98921.72;4486372;32;20088;-82
2022/07/11 08:11:14;;;;;;;6.20;1.10;;;;;;;23.15;33.84;98918.69;4458759;32;20088;-81
2022/07/11 08:13:40;;;;;;;7.00;1.40;;;;;;;23.19;34.34;98929.13;4486247;32;20157;-82
2022/07/11 08:16:06;;;;;;;5.70;1.15;;;;;;;23.67;33.71;98908.78;4471844;32;20476;-82
2022/07/11 08:18:32;;;;;;;6.97;1.40;;;;;;;23.91;32.08;98911.56;4486210;32;20115;-82
2022/07/11 08:20:58;;;;;;;4.18;1.15;;;;;;;23.91;32.11;98905.31;4471935;32;20452;-82
2022/07/11 08:23:23;;;;;;;3.37;1.17;;;;;;;24.24;31.39;98898.13;4486079;32;20132;-82
2022/07/11 08:25:49;;;;;;;6.15;1.27;;;;;;;24.22;31.20;98894.75;4486060;32;20092;-82
2022/07/11 08:28:14;;;;;;;8.20;1.23;;;;;;;24.07;31.18;98907.22;4485755;32;20513;-82
2022/07/11 08:30:39;;;;;;;5.75;1.37;;;;;;;23.88;31.72;98901.13;4485641;32;20099;-82
2022/07/11 08:33:05;;;;;;;4.53;1.33;;;;;;;24.31;31.35;98903.66;4485730;32;20088;-82
2022/07/11 08:35:30;;;;;;;4.43;1.20;;;;;;;24.43;30.63;98896.06;4485667;32;20096;-82
2022/07/11 08:37:56;;;;;;;7.93;1.40;;;;;;;24.51;30.57;98896.09;4485845;32;20073;-82
2022/07/11 08:40:21;;;;;;;6.28;1.10;;;;;;;24.39;30.45;98906.34;4485756;32;20111;-82
2022/07/11 08:42:47;;;;;;;6.72;1.10;;;;;;;24.23;30.00;98903.66;4471476;32;20111;-82
2022/07/11 08:45:16;;;;;;;4.87;1.05;;;;;;;24.03;30.20;98903.13;4485749;32;20104;-82
2022/07/11 08:47:43;;;;;;;6.40;1.35;;;;;;;24.27;30.09;98903.16;4471480;32;20135;-82
2022/07/11 08:50:12;;;;;;;6.53;1.02;;;;;;;24.14;30.00;98905.50;4485560;32;20108;-82
2022/07/11 08:52:38;;;;;;;5.78;1.05;;;;;;;23.92;29.56;98907.00;4471672;32;20432;-82
2022/07/11 08:58:26;;;;;;;6.93;1.30;;;;;;;23.89;29.91;98900.12;4488016;32;20153;-82
2022/07/11 09:00:51;;;;;;;6.30;1.48;;;;;;;24.22;29.01;98894.75;4487521;32;20088;-82
2022/07/11 09:03:17;;;;;;;5.32;1.10;;;;;;;24.28;29.01;98907.53;4473670;32;20081;-82
2022/07/11 09:05:43;;;;;;;5.50;1.10;;;;;;;24.23;29.10;98890.22;4473646;32;20206;-82
2022/07/11 09:08:09;;;;;;;5.18;1.27;;;;;;;24.32;29.04;98881.97;4473905;32;20109;-82
2022/07/11 09:10:37;;;;;;;7.97;1.30;;;;;;;24.45;28.70;98894.88;4473536;32;20168;-82
2022/07/11 09:13:04;;;;;;;10.02;1.30;;;;;;;24.70;28.33;98887.63;4487986;32;20080;-82
2022/07/11 09:15:39;;;;;;;3.87;1.00;;;;;;;24.56;28.47;98893.75;4487767;32;20168;-82
2022/07/11 09:18:24;;;;;;;5.85;1.20;;;;;;;24.58;27.50;98897.09;4487824;32;20088;-83
2022/07/11 09:26:36;;;;;;;6.07;1.30;;;;;;;24.53;27.84;98876.06;4475626;32;20126;-85
2022/07/11 09:29:06;;;;;;;3.85;1.00;;;;;;;24.32;27.61;98881.97;4487864;32;20197;-83
2022/07/11 09:31:32;;;;;;;6.47;1.10;;;;;;;24.26;27.36;98877.25;4487690;32;20139;-82
2022/07/11 09:33:59;;;;;;;5.00;1.20;;;;;;;24.09;27.98;98865.66;4487704;32;20470;-82
2022/07/11 09:36:54;;;;;;;6.68;1.23;;;;;;;23.87;28.36;98880.59;4487779;32;20180;-82
2022/07/11 09:39:24;;;;;;;5.47;1.00;;;;;;;23.78;27.22;98870.84;4480907;32;20088;-82
2022/07/11 09:41:51;;;;;;;7.00;1.62;;;;;;;23.83;27.87;98868.47;4473285;32;20081;-82
2022/07/11 09:44:24;;;;;;;4.25;1.05;;;;;;;23.94;27.83;98861.94;4487630;32;20076;-82
2022/07/11 09:46:51;;;;;;;5.57;1.23;;;;;;;23.93;27.54;98863.81;4487612;32;20096;-82
2022/07/11 09:49:28;;;;;;;5.15;1.27;;;;;;;24.13;27.52;98866.16;4487507;32;20464;-82
2022/07/11 09:51:54;;;;;;;6.03;1.30;;;;;;;24.21;27.23;98863.47;4473399;32;20113;-82
2022/07/11 09:54:19;;;;;;;8.75;1.33;;;;;;;24.18;27.42;98863.78;4487216;32;20134;-82
2022/07/11 09:56:51;;;;;;;6.95;1.40;;;;;;;24.25;26.82;98859.41;4487563;32;20390;-82
2022/07/11 09:59:16;;;;;;;5.90;0.90;;;;;;;23.77;26.53;98862.91;4474119;32;20206;-82
2022/07/11 10:01:42;;;;;;;6.22;1.10;;;;;;;23.75;27.15;98871.97;4487436;32;20077;-82
2022/07/11 10:04:08;;;;;;;6.00;0.90;;;;;;;23.68;26.77;98859.34;4472537;32;20145;-82
2022/07/11 10:06:35;;;;;;;3.08;0.93;;;;;;;23.95;26.16;98860.91;4487134;32;20461;-82
2022/07/11 10:09:02;;;;;;;4.70;1.05;;;;;;;24.01;25.94;98856.72;4473093;32;20096;-82
2022/07/11 10:11:28;;;;;;;5.55;1.20;;;;;;;24.16;26.14;98859.59;4487159;32;20088;-82
2022/07/11 10:13:54;;;;;;;4.53;1.05;;;;;;;24.24;25.55;98851.50;4487432;32;20131;-82
2022/07/11 10:16:24;;;;;;;4.80;1.08;;;;;;;24.07;25.51;98839.94;4487132;32;20498;-82
2022/07/11 10:19:16;;;;;;;4.60;1.05;;;;;;;24.27;24.95;98849.31;4487353;32;20379;-82
2022/07/11 10:22:03;;;;;;;5.70;1.30;;;;;;;24.07;25.76;98846.12;4473184;32;20123;-82
2022/07/11 10:24:36;;;;;;;6.95;1.23;;;;;;;24.07;25.26;98858.75;4487311;32;20088;-82
2022/07/11 10:27:21;;;;;;;7.28;1.30;;;;;;;24.07;24.99;98851.53;4487384;32;20092;-82
2022/07/11 10:29:51;;;;;;;7.20;1.25;;;;;;;24.35;25.17;98851.16;4487257;32;20097;-82
2022/07/11 10:32:16;;;;;;;7.12;1.30;;;;;;;24.10;26.10;98855.72;4487335;32;20092;-82
2022/07/11 10:34:42;;;;;;;3.72;1.10;;;;;;;24.42;26.06;98862.94;4487523;32;20416;-82
2022/07/11 10:37:09;;;;;;;8.63;1.17;;;;;;;24.58;25.92;98848.63;4487500;32;20092;-82
2022/07/11 10:39:36;;;;;;;5.40;1.20;;;;;;;24.60;25.51;98851.16;4473256;32;20159;-82
2022/07/11 10:42:04;;;;;;;8.38;1.45;;;;;;;24.80;25.53;98844.38;4473157;32;20160;-82
2022/07/11 10:44:53;;;;;;;5.35;1.30;;;;;;;25.09;25.54;98846.44;4487208;32;20089;-82
2022/07/11 10:47:44;;;;;;;7.53;1.42;;;;;;;25.49;24.63;98841.84;4473017;32;20188;-82
2022/07/11 10:50:28;;;;;;;8.65;1.30;;;;;;;25.55;24.63;98837.59;4487112;32;20118;-82
2022/07/11 10:52:56;;;;;;;6.20;1.20;;;;;;;25.73;24.07;98826.53;4487182;32;20080;-82
2022/07/11 10:55:30;;;;;;;;;;;;;;;25.49;24.51;98835.63;4487586;32;20160;-82
2022/07/11 10:58:13;;;;;;;7.40;1.40;;;;;;;25.60;24.02;98832.50;4487103;32;19979;-82
2022/07/11 11:00:38;;;;;;;5.30;1.08;;;;;;;25.35;24.11;98828.31;4473057;32;20096;-82
2022/07/11 11:03:07;;;;;;;7.55;1.20;;;;;;;25.35;24.17;98833.69;4486991;32;20134;-82
2022/07/11 11:05:52;;;;;;;5.70;1.10;;;;;;;24.98;24.35;98824.41;4487079;32;20080;-82
2022/07/11 11:08:33;;;;;;;5.60;1.50;;;;;;;24.72;25.33;98822.81;4487449;32;20101;-81
2022/07/11 11:10:59;;;;;;;8.13;1.20;;;;;;;24.64;25.38;98829.06;4486720;32;20100;-82
2022/07/11 11:13:26;;;;;;;6.85;1.58;;;;;;;24.69;25.56;98836.66;4472680;32;20452;-82
2022/07/11 11:15:58;;;;;;;6.90;1.37;;;;;;;25.01;25.45;98845.62;4472414;32;20152;-82
2022/07/11 11:18:26;;;;;;;8.90;1.62;;;;;;;25.19;25.28;98837.25;4487117;32;20390;-82
2022/07/11 11:21:07;;;;;;;5.22;1.10;;;;;;;25.37;25.37;98831.66;4486944;32;20368;-82
2022/07/11 11:23:39;;;;;;;6.22;1.50;;;;;;;25.58;24.78;98836.41;4486819;32;20169;-82
2022/07/11 11:26:08;;;;;;;7.37;1.48;;;;;;;25.23;25.43;98834.09;4472597;32;20084;-82
2022/07/11 11:28:35;;;;;;;6.53;1.05;;;;;;;24.90;25.69;98833.38;4472602;32;20093;-82
2022/07/11 11:31:03;;;;;;;5.18;1.12;;;;;;;24.99;25.83;98831.47;4472509;32;20130;-82
2022/07/11 11:33:31;;;;;;;9.85;1.92;;;;;;;24.46;26.47;98839.19;4486767;32;20088;-82
2022/07/11 11:36:03;;;;;;;6.40;1.30;;;;;;;24.59;26.39;98839.53;4472418;32;20455;-82
2022/07/11 11:38:30;;;;;;;8.10;1.60;;;;;;;24.87;26.36;98828.31;4472476;32;20746;-82
2022/07/11 11:40:55;;;;;;;7.35;1.35;;;;;;;24.79;26.23;98836.44;4472402;32;20107;-82
2022/07/11 11:43:21;;;;;;;6.18;1.20;;;;;;;24.70;26.40;98835.63;4472328;32;20435;-82
2022/07/11 11:45:52;;;;;;;6.35;1.10;;;;;;;24.59;26.47;98830.59;4486572;32;20105;-82